sensor_id;sensor_type;location;lat;lon;timestamp;pressure;altitude;pressure_sealevel;temperature;humidity
74893;BME280;63446;56.272;43.922;2023-04-30T00:01:01;101115.38;;;8.17;63.43
74893;BME280;63446;56.272;43.922;2023-04-30T00:03:28;101120.78;;;8.10;63.41
74893;BME280;63446;56.272;43.922;2023-04-30T00:05:54;101117.47;;;8.03;63.43
74893;BME280;63446;56.272;43.922;2023-04-30T00:08:20;101121.03;;;7.97;63.63
74893;BME280;63446;56.272;43.922;2023-04-30T00:10:46;101118.19;;;7.87;63.84
74893;BME280;63446;56.272;43.922;2023-04-30T00:13:12;101114.34;;;7.77;64.03
74893;BME280;63446;56.272;43.922;2023-04-30T00:15:38;101110.56;;;7.73;63.99
74893;BME280;63446;56.272;43.922;2023-04-30T00:18:05;101120.97;;;7.68;64.09
74893;BME280;63446;56.272;43.922;2023-04-30T00:20:32;101113.56;;;7.65;64.43
74893;BME280;63446;56.272;43.922;2023-04-30T00:23:00;101112.06;;;7.57;64.38
74893;BME280;63446;56.272;43.922;2023-04-30T00:25:26;101112.19;;;7.51;64.62
74893;BME280;63446;56.272;43.922;2023-04-30T00:27:52;101115.97;;;7.43;64.60
74893;BME280;63446;56.272;43.922;2023-04-30T00:30:17;101106.78;;;7.34;64.96
74893;BME280;63446;56.272;43.922;2023-04-30T00:32:43;101106.13;;;7.27;65.08
74893;BME280;63446;56.272;43.922;2023-04-30T00:35:10;101102.00;;;7.19;65.17
74893;BME280;63446;56.272;43.922;2023-04-30T00:37:37;101106.13;;;7.15;65.53
74893;BME280;63446;56.272;43.922;2023-04-30T00:40:03;101107.03;;;7.09;65.71
74893;BME280;63446;56.272;43.922;2023-04-30T00:42:31;101114.78;;;7.04;65.79
74893;BME280;63446;56.272;43.922;2023-04-30T00:44:57;101104.72;;;7.01;66.00
74893;BME280;63446;56.272;43.922;2023-04-30T00:47:22;101108.03;;;6.96;65.90
74893;BME280;63446;56.272;43.922;2023-04-30T00:49:49;101111.09;;;6.93;66.08
74893;BME280;63446;56.272;43.922;2023-04-30T00:52:15;101116.00;;;6.90;66.09
74893;BME280;63446;56.272;43.922;2023-04-30T00:54:41;101118.28;;;6.86;66.25
74893;BME280;63446;56.272;43.922;2023-04-30T00:57:08;101125.25;;;6.80;66.42
74893;BME280;63446;56.272;43.922;2023-04-30T00:59:37;101132.09;;;6.81;66.56
74893;BME280;63446;56.272;43.922;2023-04-30T01:02:03;101122.03;;;6.78;66.62
74893;BME280;63446;56.272;43.922;2023-04-30T01:04:29;101133.34;;;6.79;66.57
74893;BME280;63446;56.272;43.922;2023-04-30T01:06:56;101127.53;;;6.77;66.81
74893;BME280;63446;56.272;43.922;2023-04-30T01:09:22;101125.34;;;6.74;66.87
74893;BME280;63446;56.272;43.922;2023-04-30T01:12:28;101128.41;;;6.71;66.95
74893;BME280;63446;56.272;43.922;2023-04-30T01:15:10;101134.91;;;6.68;66.76
74893;BME280;63446;56.272;43.922;2023-04-30T01:18:08;101133.31;;;6.67;66.78
74893;BME280;63446;56.272;43.922;2023-04-30T01:20:32;101128.06;;;6.67;66.86
74893;BME280;63446;56.272;43.922;2023-04-30T01:25:52;101125.44;;;6.67;66.88
74893;BME280;63446;56.272;43.922;2023-04-30T01:28:26;101134.09;;;6.68;66.80
74893;BME280;63446;56.272;43.922;2023-04-30T01:30:54;101132.28;;;6.68;66.84
74893;BME280;63446;56.272;43.922;2023-04-30T01:33:20;101129.44;;;6.70;67.01
74893;BME280;63446;56.272;43.922;2023-04-30T01:42:49;101156.13;;;6.97;66.49
74893;BME280;63446;56.272;43.922;2023-04-30T01:47:39;101153.34;;;7.57;65.35
74893;BME280;63446;56.272;43.922;2023-04-30T01:51:10;101162.81;;;8.45;64.23
74893;BME280;63446;56.272;43.922;2023-04-30T01:53:09;101167.19;;;9.64;62.25
74893;BME280;63446;56.272;43.922;2023-04-30T01:55:42;101178.91;;;10.56;60.28
74893;BME280;63446;56.272;43.922;2023-04-30T01:58:14;101180.94;;;11.30;58.49
74893;BME280;63446;56.272;43.922;2023-04-30T02:00:41;101167.47;;;11.79;57.47
74893;BME280;63446;56.272;43.922;2023-04-30T02:03:07;101162.06;;;12.06;56.55
74893;BME280;63446;56.272;43.922;2023-04-30T02:05:34;101158.44;;;12.23;55.88
74893;BME280;63446;56.272;43.922;2023-04-30T02:08:00;101154.53;;;12.45;55.22
74893;BME280;63446;56.272;43.922;2023-04-30T02:10:26;101148.94;;;12.32;55.27
74893;BME280;63446;56.272;43.922;2023-04-30T02:12:54;101161.84;;;12.13;55.43
74893;BME280;63446;56.272;43.922;2023-04-30T02:15:20;101166.34;;;12.12;55.26
74893;BME280;63446;56.272;43.922;2023-04-30T02:17:46;101161.88;;;12.23;55.07
74893;BME280;63446;56.272;43.922;2023-04-30T02:20:12;101151.16;;;12.91;53.82
74893;BME280;63446;56.272;43.922;2023-04-30T02:22:39;101163.63;;;13.47;52.95
74893;BME280;63446;56.272;43.922;2023-04-30T02:25:06;101158.34;;;14.27;51.41
74893;BME280;63446;56.272;43.922;2023-04-30T02:27:32;101169.44;;;15.18;49.78
74893;BME280;63446;56.272;43.922;2023-04-30T02:29:59;101160.50;;;15.67;48.99
74893;BME280;63446;56.272;43.922;2023-04-30T02:32:26;101161.22;;;16.20;47.73
74893;BME280;63446;56.272;43.922;2023-04-30T02:34:52;101163.41;;;17.40;45.71
74893;BME280;63446;56.272;43.922;2023-04-30T02:37:18;101160.38;;;18.52;43.69
74893;BME280;63446;56.272;43.922;2023-04-30T02:39:44;101154.38;;;19.76;41.53
74893;BME280;63446;56.272;43.922;2023-04-30T02:42:10;101170.75;;;20.92;39.55
74893;BME280;63446;56.272;43.922;2023-04-30T02:44:37;101163.00;;;21.55;38.70
74893;BME280;63446;56.272;43.922;2023-04-30T02:47:03;101163.91;;;21.98;37.79
74893;BME280;63446;56.272;43.922;2023-04-30T02:49:30;101165.88;;;22.09;37.64
74893;BME280;63446;56.272;43.922;2023-04-30T02:51:57;101166.28;;;21.99;37.46
74893;BME280;63446;56.272;43.922;2023-04-30T02:54:23;101175.84;;;21.88;37.22
74893;BME280;63446;56.272;43.922;2023-04-30T02:56:49;101173.09;;;21.67;37.21
74893;BME280;63446;56.272;43.922;2023-04-30T02:59:15;101175.31;;;21.09;37.42
74893;BME280;63446;56.272;43.922;2023-04-30T03:01:42;101171.84;;;20.39;37.99
74893;BME280;63446;56.272;43.922;2023-04-30T03:04:08;101178.19;;;19.69;38.70
74893;BME280;63446;56.272;43.922;2023-04-30T03:06:33;101167.00;;;18.91;39.50
74893;BME280;63446;56.272;43.922;2023-04-30T03:08:59;101168.69;;;18.14;40.53
74893;BME280;63446;56.272;43.922;2023-04-30T03:11:26;101168.31;;;17.33;41.46
74893;BME280;63446;56.272;43.922;2023-04-30T03:13:52;101167.44;;;16.53;42.46
74893;BME280;63446;56.272;43.922;2023-04-30T03:16:20;101160.25;;;15.87;43.40
74893;BME280;63446;56.272;43.922;2023-04-30T03:18:47;101151.53;;;15.28;44.21
74893;BME280;63446;56.272;43.922;2023-04-30T03:21:15;101160.06;;;14.91;44.90
74893;BME280;63446;56.272;43.922;2023-04-30T03:23:41;101152.09;;;14.57;45.27
74893;BME280;63446;56.272;43.922;2023-04-30T03:26:07;101159.31;;;14.46;45.61
74893;BME280;63446;56.272;43.922;2023-04-30T03:28:34;101153.47;;;14.39;45.78
74893;BME280;63446;56.272;43.922;2023-04-30T03:31:00;101151.66;;;14.29;45.97
74893;BME280;63446;56.272;43.922;2023-04-30T03:33:30;101151.69;;;14.24;46.14
74893;BME280;63446;56.272;43.922;2023-04-30T03:35:56;101163.91;;;14.25;46.13
74893;BME280;63446;56.272;43.922;2023-04-30T03:38:22;101165.16;;;14.43;45.87
74893;BME280;63446;56.272;43.922;2023-04-30T03:40:48;101159.53;;;14.55;45.76
74893;BME280;63446;56.272;43.922;2023-04-30T03:43:14;101170.44;;;14.58;45.50
74893;BME280;63446;56.272;43.922;2023-04-30T03:45:40;101181.91;;;14.54;45.43
74893;BME280;63446;56.272;43.922;2023-04-30T03:48:06;101186.16;;;14.45;45.54
74893;BME280;63446;56.272;43.922;2023-04-30T03:50:34;101183.06;;;14.27;45.61
74893;BME280;63446;56.272;43.922;2023-04-30T03:53:00;101181.28;;;14.07;45.97
74893;BME280;63446;56.272;43.922;2023-04-30T03:55:26;101173.94;;;13.84;46.08
74893;BME280;63446;56.272;43.922;2023-04-30T03:57:52;101186.97;;;13.65;46.40
74893;BME280;63446;56.272;43.922;2023-04-30T04:00:18;101191.53;;;13.49;46.77
74893;BME280;63446;56.272;43.922;2023-04-30T04:02:48;101179.84;;;13.40;46.82
74893;BME280;63446;56.272;43.922;2023-04-30T04:05:14;101196.28;;;13.47;46.93
74893;BME280;63446;56.272;43.922;2023-04-30T04:07:40;101198.91;;;13.73;46.65
74893;BME280;63446;56.272;43.922;2023-04-30T04:10:06;101206.69;;;14.29;45.95
74893;BME280;63446;56.272;43.922;2023-04-30T04:12:32;101191.00;;;15.21;44.58
74893;BME280;63446;56.272;43.922;2023-04-30T04:14:58;101191.66;;;16.14;43.30
74893;BME280;63446;56.272;43.922;2023-04-30T04:17:24;101179.78;;;17.20;42.03
74893;BME280;63446;56.272;43.922;2023-04-30T04:19:51;101182.56;;;18.16;40.71
74893;BME280;63446;56.272;43.922;2023-04-30T04:22:18;101176.00;;;18.72;40.01
74893;BME280;63446;56.272;43.922;2023-04-30T04:24:45;101175.72;;;18.96;39.29
74893;BME280;63446;56.272;43.922;2023-04-30T04:27:17;101177.41;;;19.15;39.05
74893;BME280;63446;56.272;43.922;2023-04-30T04:29:45;101170.22;;;19.01;38.90
74893;BME280;63446;56.272;43.922;2023-04-30T04:32:12;101169.66;;;18.91;38.90
74893;BME280;63446;56.272;43.922;2023-04-30T04:34:41;101170.22;;;18.79;38.88
74893;BME280;63446;56.272;43.922;2023-04-30T04:37:08;101171.19;;;18.83;38.92
74893;BME280;63446;56.272;43.922;2023-04-30T04:39:35;101173.50;;;18.98;38.17
74893;BME280;63446;56.272;43.922;2023-04-30T04:42:03;101173.25;;;19.31;37.65
74893;BME280;63446;56.272;43.922;2023-04-30T04:44:31;101188.56;;;19.62;37.38
74893;BME280;63446;56.272;43.922;2023-04-30T04:46:57;101183.94;;;20.02;36.75
74893;BME280;63446;56.272;43.922;2023-04-30T04:49:24;101188.81;;;20.57;36.02
74893;BME280;63446;56.272;43.922;2023-04-30T04:51:51;101191.22;;;21.40;35.26
74893;BME280;63446;56.272;43.922;2023-04-30T04:54:17;101189.19;;;22.14;34.34
74893;BME280;63446;56.272;43.922;2023-04-30T04:56:43;101179.97;;;22.78;33.84
74893;BME280;63446;56.272;43.922;2023-04-30T04:59:10;101167.31;;;23.24;32.97
74893;BME280;63446;56.272;43.922;2023-04-30T05:01:35;101173.09;;;24.08;32.15
74893;BME280;63446;56.272;43.922;2023-04-30T05:04:02;101177.25;;;25.30;30.68
74893;BME280;63446;56.272;43.922;2023-04-30T05:06:28;101186.25;;;26.94;29.30
74893;BME280;63446;56.272;43.922;2023-04-30T05:08:54;101181.13;;;28.71;27.80
74893;BME280;63446;56.272;43.922;2023-04-30T05:11:20;101185.84;;;30.26;26.68
74893;BME280;63446;56.272;43.922;2023-04-30T05:13:47;101177.13;;;31.40;25.49
74893;BME280;63446;56.272;43.922;2023-04-30T05:16:13;101170.41;;;31.98;24.62
74893;BME280;63446;56.272;43.922;2023-04-30T05:18:39;101169.63;;;31.97;24.62
74893;BME280;63446;56.272;43.922;2023-04-30T05:21:05;101174.72;;;31.77;24.55
74893;BME280;63446;56.272;43.922;2023-04-30T05:23:31;101175.16;;;31.44;24.63
74893;BME280;63446;56.272;43.922;2023-04-30T05:25:57;101173.06;;;30.48;25.24
74893;BME280;63446;56.272;43.922;2023-04-30T05:28:23;101174.28;;;29.26;25.90
74893;BME280;63446;56.272;43.922;2023-04-30T05:30:49;101173.41;;;27.83;26.79
74893;BME280;63446;56.272;43.922;2023-04-30T05:33:15;101168.56;;;26.42;27.74
74893;BME280;63446;56.272;43.922;2023-04-30T05:35:41;101160.94;;;25.11;28.45
74893;BME280;63446;56.272;43.922;2023-04-30T05:38:08;101154.53;;;23.94;29.80
74893;BME280;63446;56.272;43.922;2023-04-30T05:40:33;101146.75;;;23.19;30.76
74893;BME280;63446;56.272;43.922;2023-04-30T05:42:59;101136.94;;;22.69;30.77
74893;BME280;63446;56.272;43.922;2023-04-30T05:45:25;101134.34;;;22.39;31.40
74893;BME280;63446;56.272;43.922;2023-04-30T05:47:51;101146.41;;;22.54;31.56
74893;BME280;63446;56.272;43.922;2023-04-30T05:50:18;101149.50;;;22.98;31.22
74893;BME280;63446;56.272;43.922;2023-04-30T05:52:43;101156.50;;;22.99;31.10
74893;BME280;63446;56.272;43.922;2023-04-30T05:55:09;101146.16;;;22.68;31.33
74893;BME280;63446;56.272;43.922;2023-04-30T05:57:35;101152.56;;;22.22;31.91
74893;BME280;63446;56.272;43.922;2023-04-30T06:00:02;101169.59;;;21.66;32.21
74893;BME280;63446;56.272;43.922;2023-04-30T06:02:38;101159.66;;;21.11;32.83
74893;BME280;63446;56.272;43.922;2023-04-30T06:05:09;101154.66;;;20.75;33.42
74893;BME280;63446;56.272;43.922;2023-04-30T06:07:36;101157.81;;;20.51;33.92
74893;BME280;63446;56.272;43.922;2023-04-30T06:10:02;101159.22;;;20.40;34.14
74893;BME280;63446;56.272;43.922;2023-04-30T06:12:30;101159.53;;;20.30;34.58
74893;BME280;63446;56.272;43.922;2023-04-30T06:14:56;101162.31;;;19.98;34.68
74893;BME280;63446;56.272;43.922;2023-04-30T06:17:22;101161.53;;;19.58;35.09
74893;BME280;63446;56.272;43.922;2023-04-30T06:19:49;101148.31;;;18.99;35.56
74893;BME280;63446;56.272;43.922;2023-04-30T06:22:16;101154.69;;;18.31;36.29
74893;BME280;63446;56.272;43.922;2023-04-30T06:24:41;101157.94;;;17.92;37.03
74893;BME280;63446;56.272;43.922;2023-04-30T06:27:08;101163.84;;;17.61;37.47
74893;BME280;63446;56.272;43.922;2023-04-30T06:29:34;101162.59;;;17.40;37.93
74893;BME280;63446;56.272;43.922;2023-04-30T06:32:00;101162.38;;;17.22;38.36
74893;BME280;63446;56.272;43.922;2023-04-30T06:34:25;101154.84;;;17.11;38.35
74893;BME280;63446;56.272;43.922;2023-04-30T06:36:51;101155.38;;;16.94;38.57
74893;BME280;63446;56.272;43.922;2023-04-30T06:39:17;101143.19;;;16.69;39.05
74893;BME280;63446;56.272;43.922;2023-04-30T06:41:42;101149.19;;;16.60;39.28
74893;BME280;63446;56.272;43.922;2023-04-30T06:44:09;101147.25;;;16.47;39.77
74893;BME280;63446;56.272;43.922;2023-04-30T06:46:36;101131.66;;;16.35;39.83
74893;BME280;63446;56.272;43.922;2023-04-30T06:49:02;101129.50;;;16.19;40.29
74893;BME280;63446;56.272;43.922;2023-04-30T06:51:28;101123.59;;;16.03;40.61
74893;BME280;63446;56.272;43.922;2023-04-30T06:53:54;101124.56;;;15.88;40.78
74893;BME280;63446;56.272;43.922;2023-04-30T06:56:20;101109.78;;;15.77;41.00
74893;BME280;63446;56.272;43.922;2023-04-30T06:58:47;101106.56;;;15.75;41.73
74893;BME280;63446;56.272;43.922;2023-04-30T07:01:15;101111.41;;;15.73;41.27
74893;BME280;63446;56.272;43.922;2023-04-30T07:03:42;101113.94;;;15.59;41.16
74893;BME280;63446;56.272;43.922;2023-04-30T07:06:08;101091.63;;;15.26;41.62
74893;BME280;63446;56.272;43.922;2023-04-30T07:08:34;101082.28;;;15.28;41.69
74893;BME280;63446;56.272;43.922;2023-04-30T07:11:00;101079.84;;;15.32;41.81
74893;BME280;63446;56.272;43.922;2023-04-30T07:13:25;101067.94;;;15.48;41.58
74893;BME280;63446;56.272;43.922;2023-04-30T07:15:51;101062.22;;;15.65;41.52
74893;BME280;63446;56.272;43.922;2023-04-30T07:18:17;101060.16;;;15.81;41.47
74893;BME280;63446;56.272;43.922;2023-04-30T07:20:44;101069.06;;;15.90;41.32
74893;BME280;63446;56.272;43.922;2023-04-30T07:23:10;101063.53;;;15.86;41.27
74893;BME280;63446;56.272;43.922;2023-04-30T07:25:36;101060.78;;;15.73;41.53
74893;BME280;63446;56.272;43.922;2023-04-30T07:28:02;101068.72;;;15.54;41.48
74893;BME280;63446;56.272;43.922;2023-04-30T07:30:28;101052.66;;;15.35;41.83
74893;BME280;63446;56.272;43.922;2023-04-30T07:32:55;101059.28;;;15.13;42.10
74893;BME280;63446;56.272;43.922;2023-04-30T07:35:21;101055.72;;;14.99;42.00
74893;BME280;63446;56.272;43.922;2023-04-30T07:37:48;101053.69;;;14.86;42.08
74893;BME280;63446;56.272;43.922;2023-04-30T07:40:14;101048.97;;;14.78;42.05
74893;BME280;63446;56.272;43.922;2023-04-30T07:42:40;101067.47;;;14.59;42.14
74893;BME280;63446;56.272;43.922;2023-04-30T07:45:07;101066.19;;;14.51;41.94
74893;BME280;63446;56.272;43.922;2023-04-30T07:47:33;101039.97;;;14.34;42.25
74893;BME280;63446;56.272;43.922;2023-04-30T07:50:00;101050.09;;;14.32;42.34
74893;BME280;63446;56.272;43.922;2023-04-30T07:52:25;101055.88;;;14.39;42.43
74893;BME280;63446;56.272;43.922;2023-04-30T07:54:51;101052.84;;;14.56;42.29
74893;BME280;63446;56.272;43.922;2023-04-30T07:57:17;101050.66;;;14.69;42.27
74893;BME280;63446;56.272;43.922;2023-04-30T07:59:42;101051.03;;;14.86;42.04
74893;BME280;63446;56.272;43.922;2023-04-30T08:02:08;101044.25;;;14.99;41.66
74893;BME280;63446;56.272;43.922;2023-04-30T08:04:34;101031.13;;;15.07;41.58
74893;BME280;63446;56.272;43.922;2023-04-30T08:07:00;101019.97;;;15.05;41.40
74893;BME280;63446;56.272;43.922;2023-04-30T08:09:29;101018.16;;;15.01;41.71
74893;BME280;63446;56.272;43.922;2023-04-30T08:11:55;101008.28;;;15.01;41.81
74893;BME280;63446;56.272;43.922;2023-04-30T08:14:21;101010.88;;;15.06;41.46
74893;BME280;63446;56.272;43.922;2023-04-30T08:16:47;101002.81;;;15.17;40.95
74893;BME280;63446;56.272;43.922;2023-04-30T08:19:13;100995.78;;;15.26;40.54
74893;BME280;63446;56.272;43.922;2023-04-30T08:21:39;100999.63;;;15.38;40.49
74893;BME280;63446;56.272;43.922;2023-04-30T08:24:05;101008.53;;;15.53;40.03
74893;BME280;63446;56.272;43.922;2023-04-30T08:26:32;101009.72;;;15.66;39.57
74893;BME280;63446;56.272;43.922;2023-04-30T08:28:58;101004.19;;;15.81;39.60
74893;BME280;63446;56.272;43.922;2023-04-30T08:31:24;101016.94;;;16.03;39.33
74893;BME280;63446;56.272;43.922;2023-04-30T08:33:51;101019.09;;;16.20;38.98
74893;BME280;63446;56.272;43.922;2023-04-30T08:36:16;101016.19;;;16.35;38.68
74893;BME280;63446;56.272;43.922;2023-04-30T08:38:43;101004.75;;;16.48;38.45
74893;BME280;63446;56.272;43.922;2023-04-30T08:43:36;100992.88;;;16.73;38.02
74893;BME280;63446;56.272;43.922;2023-04-30T08:46:03;100997.75;;;16.85;38.25
74893;BME280;63446;56.272;43.922;2023-04-30T08:48:29;100987.56;;;17.01;37.88
74893;BME280;63446;56.272;43.922;2023-04-30T08:51:01;100992.03;;;17.19;37.57
74893;BME280;63446;56.272;43.922;2023-04-30T08:53:29;100996.28;;;17.34;37.17
74893;BME280;63446;56.272;43.922;2023-04-30T08:55:56;100982.09;;;17.47;36.69
74893;BME280;63446;56.272;43.922;2023-04-30T08:58:23;101000.50;;;17.63;36.36
74893;BME280;63446;56.272;43.922;2023-04-30T09:00:49;100997.09;;;17.71;35.98
74893;BME280;63446;56.272;43.922;2023-04-30T09:03:15;100999.41;;;17.77;35.62
74893;BME280;63446;56.272;43.922;2023-04-30T09:05:40;101005.41;;;17.83;35.48
74893;BME280;63446;56.272;43.922;2023-04-30T09:08:07;101001.41;;;17.94;35.28
74893;BME280;63446;56.272;43.922;2023-04-30T09:10:34;100992.66;;;18.02;35.03
74893;BME280;63446;56.272;43.922;2023-04-30T09:13:07;100983.88;;;18.02;34.70
74893;BME280;63446;56.272;43.922;2023-04-30T09:15:35;100973.47;;;18.00;34.80
74893;BME280;63446;56.272;43.922;2023-04-30T09:18:13;100965.31;;;18.05;34.92
74893;BME280;63446;56.272;43.922;2023-04-30T09:20:58;100969.75;;;18.10;35.00
74893;BME280;63446;56.272;43.922;2023-04-30T09:23:26;100979.84;;;18.13;35.16
74893;BME280;63446;56.272;43.922;2023-04-30T09:25:53;100981.16;;;18.16;35.12
74893;BME280;63446;56.272;43.922;2023-04-30T09:28:19;100978.34;;;18.21;35.36
74893;BME280;63446;56.272;43.922;2023-04-30T09:30:51;100969.75;;;18.33;35.37
74893;BME280;63446;56.272;43.922;2023-04-30T09:33:18;100998.03;;;18.47;35.08
74893;BME280;63446;56.272;43.922;2023-04-30T09:35:45;100977.97;;;18.36;34.29
74893;BME280;63446;56.272;43.922;2023-04-30T09:38:28;100998.72;;;18.30;34.44
74893;BME280;63446;56.272;43.922;2023-04-30T09:40:54;100995.91;;;18.13;34.32
74893;BME280;63446;56.272;43.922;2023-04-30T09:43:20;101003.69;;;18.01;34.51
74893;BME280;63446;56.272;43.922;2023-04-30T09:45:47;101006.69;;;17.86;34.47
74893;BME280;63446;56.272;43.922;2023-04-30T09:48:21;100998.31;;;17.65;34.47
74893;BME280;63446;56.272;43.922;2023-04-30T09:50:48;100991.63;;;17.40;34.61
74893;BME280;63446;56.272;43.922;2023-04-30T09:53:14;100974.31;;;17.09;35.02
74893;BME280;63446;56.272;43.922;2023-04-30T09:55:44;100956.41;;;16.82;35.29
74893;BME280;63446;56.272;43.922;2023-04-30T09:58:12;100929.28;;;16.62;35.90
74893;BME280;63446;56.272;43.922;2023-04-30T10:00:39;100916.41;;;16.36;36.02
74893;BME280;63446;56.272;43.922;2023-04-30T10:03:08;100894.94;;;16.27;36.14
74893;BME280;63446;56.272;43.922;2023-04-30T10:05:38;100873.72;;;16.22;36.27
74893;BME280;63446;56.272;43.922;2023-04-30T10:08:12;100855.13;;;16.17;36.44
74893;BME280;63446;56.272;43.922;2023-04-30T10:10:39;100848.53;;;16.15;36.73
74893;BME280;63446;56.272;43.922;2023-04-30T10:13:10;100860.56;;;16.12;36.65
74893;BME280;63446;56.272;43.922;2023-04-30T10:15:44;100870.09;;;15.99;36.94
74893;BME280;63446;56.272;43.922;2023-04-30T10:18:18;100835.91;;;15.88;37.05
74893;BME280;63446;56.272;43.922;2023-04-30T10:20:47;100844.66;;;15.74;37.17
74893;BME280;63446;56.272;43.922;2023-04-30T10:23:14;100859.25;;;15.58;37.39
74893;BME280;63446;56.272;43.922;2023-04-30T10:25:40;100875.25;;;15.39;37.83
74893;BME280;63446;56.272;43.922;2023-04-30T10:28:08;100878.03;;;15.29;38.01
74893;BME280;63446;56.272;43.922;2023-04-30T10:30:35;100861.94;;;15.20;38.16
74893;BME280;63446;56.272;43.922;2023-04-30T10:33:11;100852.72;;;15.12;38.45
74893;BME280;63446;56.272;43.922;2023-04-30T10:35:58;100857.03;;;15.08;38.80
74893;BME280;63446;56.272;43.922;2023-04-30T10:38:29;100838.41;;;15.08;38.88
74893;BME280;63446;56.272;43.922;2023-04-30T10:40:56;100842.28;;;15.16;39.11
74893;BME280;63446;56.272;43.922;2023-04-30T10:43:29;100831.84;;;15.20;39.17
74893;BME280;63446;56.272;43.922;2023-04-30T10:45:56;100835.44;;;15.29;38.91
74893;BME280;63446;56.272;43.922;2023-04-30T10:48:23;100839.31;;;15.36;38.74
74893;BME280;63446;56.272;43.922;2023-04-30T10:50:52;100835.94;;;15.50;38.84
74893;BME280;63446;56.272;43.922;2023-04-30T10:53:20;100833.84;;;15.47;38.75
74893;BME280;63446;56.272;43.922;2023-04-30T10:55:52;100822.84;;;15.53;38.86
74893;BME280;63446;56.272;43.922;2023-04-30T10:58:32;100835.00;;;15.59;38.88
74893;BME280;63446;56.272;43.922;2023-04-30T11:01:09;100833.09;;;15.60;38.85
74893;BME280;63446;56.272;43.922;2023-04-30T11:03:39;100824.63;;;15.58;38.90
74893;BME280;63446;56.272;43.922;2023-04-30T11:06:13;100808.56;;;15.63;39.00
74893;BME280;63446;56.272;43.922;2023-04-30T11:08:44;100797.91;;;15.63;39.08
74893;BME280;63446;56.272;43.922;2023-04-30T11:11:11;100800.28;;;15.65;39.07
74893;BME280;63446;56.272;43.922;2023-04-30T11:13:47;100804.31;;;15.62;39.14
74893;BME280;63446;56.272;43.922;2023-04-30T11:16:15;100813.56;;;15.51;39.14
74893;BME280;63446;56.272;43.922;2023-04-30T11:18:43;100801.56;;;15.34;39.16
74893;BME280;63446;56.272;43.922;2023-04-30T11:21:11;100799.91;;;15.20;39.28
74893;BME280;63446;56.272;43.922;2023-04-30T11:23:41;100805.59;;;15.13;39.45
74893;BME280;63446;56.272;43.922;2023-04-30T11:26:09;100802.25;;;15.02;39.59
74893;BME280;63446;56.272;43.922;2023-04-30T11:28:36;100810.09;;;14.94;39.50
74893;BME280;63446;56.272;43.922;2023-04-30T11:31:03;100806.22;;;14.86;39.47
74893;BME280;63446;56.272;43.922;2023-04-30T11:33:30;100814.50;;;14.84;39.57
74893;BME280;63446;56.272;43.922;2023-04-30T11:35:59;100828.59;;;14.85;39.64
74893;BME280;63446;56.272;43.922;2023-04-30T11:38:31;100834.69;;;14.85;39.70
74893;BME280;63446;56.272;43.922;2023-04-30T11:41:00;100853.41;;;14.80;39.75
74893;BME280;63446;56.272;43.922;2023-04-30T11:43:27;100858.81;;;14.70;39.51
74893;BME280;63446;56.272;43.922;2023-04-30T11:48:33;100875.75;;;14.55;39.50
74893;BME280;63446;56.272;43.922;2023-04-30T11:51:19;100864.09;;;14.51;39.68
74893;BME280;63446;56.272;43.922;2023-04-30T11:53:47;100873.13;;;14.50;39.78
74893;BME280;63446;56.272;43.922;2023-04-30T11:56:20;100868.66;;;14.46;39.78
74893;BME280;63446;56.272;43.922;2023-04-30T11:58:48;100845.03;;;14.39;40.14
74893;BME280;63446;56.272;43.922;2023-04-30T12:01:14;100839.50;;;14.35;40.32
74893;BME280;63446;56.272;43.922;2023-04-30T12:03:45;100852.78;;;14.35;40.33
74893;BME280;63446;56.272;43.922;2023-04-30T12:06:25;100847.22;;;14.32;40.47
74893;BME280;63446;56.272;43.922;2023-04-30T12:08:53;100848.78;;;14.38;40.37
74893;BME280;63446;56.272;43.922;2023-04-30T12:11:29;100843.22;;;14.34;40.36
74893;BME280;63446;56.272;43.922;2023-04-30T12:14:10;100845.91;;;14.29;40.43
74893;BME280;63446;56.272;43.922;2023-04-30T12:16:46;100850.75;;;14.27;40.30
74893;BME280;63446;56.272;43.922;2023-04-30T12:19:16;100824.47;;;14.21;40.36
74893;BME280;63446;56.272;43.922;2023-04-30T12:21:44;100804.06;;;14.16;40.48
74893;BME280;63446;56.272;43.922;2023-04-30T12:24:13;100786.78;;;14.19;41.27
74893;BME280;63446;56.272;43.922;2023-04-30T12:26:40;100762.56;;;14.20;41.29
74893;BME280;63446;56.272;43.922;2023-04-30T12:29:13;100747.72;;;14.14;41.35
74893;BME280;63446;56.272;43.922;2023-04-30T12:31:40;100748.81;;;14.13;41.50
74893;BME280;63446;56.272;43.922;2023-04-30T12:34:09;100745.59;;;14.16;41.39
74893;BME280;63446;56.272;43.922;2023-04-30T12:36:35;100736.44;;;14.27;41.43
74893;BME280;63446;56.272;43.922;2023-04-30T12:39:11;100718.19;;;14.39;41.10
74893;BME280;63446;56.272;43.922;2023-04-30T12:41:45;100689.00;;;14.58;40.71
74893;BME280;63446;56.272;43.922;2023-04-30T12:44:14;100677.56;;;14.77;40.56
74893;BME280;63446;56.272;43.922;2023-04-30T12:46:40;100654.47;;;14.91;40.30
74893;BME280;63446;56.272;43.922;2023-04-30T12:49:07;100652.16;;;15.03;40.05
74893;BME280;63446;56.272;43.922;2023-04-30T12:51:34;100655.41;;;15.14;40.03
74893;BME280;63446;56.272;43.922;2023-04-30T12:54:01;100649.47;;;15.22;39.70
74893;BME280;63446;56.272;43.922;2023-04-30T12:56:27;100645.13;;;15.26;39.65
74893;BME280;63446;56.272;43.922;2023-04-30T12:58:52;100669.97;;;15.35;39.50
74893;BME280;63446;56.272;43.922;2023-04-30T13:01:20;100680.25;;;15.42;39.29